createdAt,value
2023-01-09T00:02:30.743Z,4.63
2023-01-09T06:24:14.726Z,6.72
2023-01-09T06:27:16.376Z,9.32
2023-01-09T06:30:19.125Z,7.85
2023-01-09T06:33:20.873Z,5.85
2023-01-09T06:36:22.891Z,3.13
2023-01-09T06:39:24.528Z,4.75
2023-01-09T06:42:29.037Z,6.22
2023-01-09T06:45:31.053Z,6.75
2023-01-09T06:48:33.172Z,3.00
2023-01-09T06:51:34.797Z,4.57
2023-01-09T06:54:36.671Z,4.40
2023-01-09T06:57:39.493Z,7.80
2023-01-09T07:00:41.129Z,6.00
2023-01-09T07:03:43.974Z,6.57
2023-01-09T07:06:48.198Z,5.45
2023-01-09T07:09:50.025Z,6.82
2023-01-09T07:12:51.726Z,7.85
2023-01-09T07:15:53.785Z,4.25
2023-01-09T07:18:55.517Z,4.18
2023-01-09T07:22:05.925Z,5.72
2023-01-09T07:25:07.935Z,4.95
2023-01-09T07:28:09.590Z,2.17
2023-01-09T07:31:11.271Z,3.85
2023-01-09T07:34:13.312Z,5.70
2023-01-09T07:37:15.276Z,5.45
2023-01-09T07:40:17.091Z,3.03
2023-01-09T07:43:18.889Z,7.68
2023-01-09T07:46:26.582Z,7.70
2023-01-09T07:49:28.339Z,7.50
2023-01-09T07:52:29.990Z,7.20
2023-01-09T07:55:31.739Z,10.48
2023-01-09T07:58:33.447Z,2.55
2023-01-09T08:01:35.261Z,6.75
2023-01-09T08:04:37.017Z,8.07
2023-01-09T08:07:38.718Z,7.00
2023-01-09T08:10:40.580Z,6.95
2023-01-09T08:13:42.399Z,4.85
2023-01-09T08:16:44.087Z,8.30
2023-01-09T08:19:45.719Z,10.27
2023-01-09T08:22:49.730Z,9.98
2023-01-09T08:25:52.465Z,4.72
2023-01-09T08:28:54.123Z,4.55
2023-01-09T08:31:56.008Z,1.17
2023-01-09T08:34:57.889Z,3.65
2023-01-09T08:38:00.094Z,5.38
2023-01-09T08:41:21.743Z,6.60
2023-01-09T08:44:42.165Z,4.47
2023-01-09T08:47:43.851Z,2.70
2023-01-09T08:50:45.552Z,6.07
2023-01-09T08:53:47.516Z,7.28
2023-01-09T08:56:49.326Z,5.97
2023-01-09T08:59:50.998Z,4.50
2023-01-09T09:02:53.381Z,5.18
2023-01-09T09:05:55.092Z,3.83
2023-01-09T09:08:56.819Z,6.00
2023-01-09T09:11:58.496Z,7.05
2023-01-09T09:15:12.343Z,3.22
2023-01-09T09:18:14.004Z,4.95
2023-01-09T09:21:15.657Z,5.15
2023-01-09T09:24:17.319Z,3.00
2023-01-09T09:27:19.252Z,1.70
2023-01-09T09:30:20.996Z,3.80
2023-01-09T09:33:22.803Z,8.70
2023-01-09T09:36:24.577Z,4.43
2023-01-09T09:39:26.300Z,5.85
2023-01-09T09:43:16.172Z,3.30
2023-01-09T09:46:44.677Z,4.82
2023-01-09T09:50:14.430Z,2.25
2023-01-09T09:53:17.343Z,3.13
2023-01-09T09:56:19.712Z,3.65
2023-01-09T09:59:22.801Z,5.45
2023-01-09T10:02:32.902Z,7.35
2023-01-09T10:05:36.885Z,2.55
2023-01-09T10:08:57.069Z,3.30
2023-01-09T10:12:13.747Z,4.90
2023-01-09T10:15:20.321Z,2.63
2023-01-09T10:18:42.224Z,6.55
2023-01-09T10:21:58.963Z,4.38
2023-01-09T10:25:23.011Z,5.18
2023-01-09T10:29:09.106Z,4.18
2023-01-09T10:32:21.713Z,6.95
2023-01-09T10:35:47.018Z,3.30
2023-01-09T10:38:50.965Z,4.55
2023-01-09T10:42:02.172Z,2.08
2023-01-09T10:45:06.961Z,1.95
2023-01-09T10:48:35.983Z,2.35
2023-01-09T10:51:47.746Z,4.15
2023-01-09T10:54:56.731Z,3.03
2023-01-09T10:57:59.724Z,4.13
2023-01-09T11:01:03.103Z,2.40
2023-01-09T11:04:23.682Z,4.85
2023-01-09T11:07:28.620Z,4.15
2023-01-09T11:10:48.958Z,4.25
2023-01-09T11:13:50.738Z,1.60
2023-01-09T11:16:56.879Z,3.38
2023-01-09T11:20:03.771Z,2.40
2023-01-09T11:23:23.120Z,2.70
2023-01-09T11:26:28.733Z,2.75
2023-01-09T11:29:30.422Z,2.58
2023-01-09T11:32:32.124Z,1.92
2023-01-09T11:35:34.829Z,2.58
2023-01-09T11:38:50.823Z,2.60
2023-01-09T11:41:57.151Z,2.58
2023-01-09T11:44:59.264Z,2.03
2023-01-09T11:48:01.525Z,0.73
2023-01-09T11:51:06.727Z,4.85
2023-01-09T11:54:28.452Z,1.60
2023-01-09T12:00:35.758Z,2.03
2023-01-09T12:04:01.678Z,2.95
2023-01-09T12:07:25.025Z,3.20
2023-01-09T12:11:03.423Z,4.63
2023-01-09T12:14:29.635Z,0.82
2023-01-09T12:17:46.305Z,2.05
2023-01-09T12:21:02.831Z,0.98
2023-01-09T12:24:17.985Z,1.08
2023-01-09T12:27:51.413Z,3.50
2023-01-09T12:30:53.025Z,2.53
2023-01-09T12:34:27.592Z,3.80
2023-01-09T12:37:57.794Z,3.65
2023-01-09T12:41:31.007Z,3.55
2023-01-09T12:45:00.393Z,4.90
2023-01-09T12:48:12.786Z,1.05
2023-01-09T12:51:49.143Z,2.10
2023-01-09T12:55:05.948Z,2.45
2023-01-09T12:58:39.385Z,4.63
2023-01-09T13:01:45.250Z,2.83
2023-01-09T13:04:57.558Z,2.65
2023-01-09T13:08:09.261Z,3.92
2023-01-09T13:11:20.208Z,5.25
2023-01-09T13:14:30.836Z,2.30
2023-01-09T13:17:46.958Z,1.45
2023-01-09T13:20:53.216Z,2.80
2023-01-09T13:24:06.848Z,1.73
2023-01-09T13:27:13.221Z,5.30
2023-01-09T13:30:37.095Z,5.57
2023-01-09T13:33:46.568Z,2.88
2023-01-09T13:40:07.579Z,2.40
2023-01-09T13:43:09.970Z,4.63
2023-01-09T13:46:11.698Z,4.85
2023-01-09T13:49:34.133Z,4.22
2023-01-09T13:52:39.256Z,2.58
2023-01-09T13:55:41.130Z,3.08
2023-01-09T13:58:55.063Z,1.02
2023-01-09T14:01:56.770Z,4.95
2023-01-09T14:04:58.708Z,3.92
2023-01-09T14:08:33.873Z,3.47
2023-01-09T14:11:35.593Z,2.67
2023-01-09T14:14:41.189Z,4.10
2023-01-09T14:17:42.866Z,0.70
2023-01-09T14:20:46.287Z,2.63
2023-01-09T14:27:01.171Z,5.47
2023-01-09T14:30:28.029Z,4.55
2023-01-09T14:33:30.706Z,2.13
2023-01-09T14:36:32.404Z,5.78
2023-01-09T14:39:34.128Z,6.20
2023-01-09T14:42:35.775Z,5.28
2023-01-09T14:45:40.066Z,3.92
2023-01-09T14:48:55.523Z,2.58
2023-01-09T14:51:57.967Z,6.68
2023-01-09T14:55:04.546Z,2.90
2023-01-09T14:58:12.884Z,5.95
2023-01-09T15:01:18.706Z,3.50
2023-01-09T15:04:31.701Z,5.57
2023-01-09T15:07:40.341Z,6.53
2023-01-09T15:10:42.845Z,6.07
2023-01-09T15:13:46.900Z,6.15
2023-01-09T15:16:48.652Z,3.50
2023-01-09T15:19:50.304Z,6.50
2023-01-09T15:22:54.574Z,2.50
2023-01-09T15:25:57.768Z,3.60
2023-01-09T15:29:15.431Z,10.95
2023-01-09T15:32:28.208Z,3.63
2023-01-09T15:35:30.119Z,5.15
2023-01-09T15:38:32.063Z,5.20
2023-01-09T15:41:52.152Z,5.97
2023-01-09T15:44:54.157Z,4.25
2023-01-09T15:48:14.637Z,4.15
2023-01-09T15:51:19.048Z,2.72
2023-01-09T15:54:39.887Z,4.57
2023-01-09T15:57:51.158Z,4.22
2023-01-09T16:00:57.581Z,3.50
2023-01-09T16:04:05.159Z,4.78
2023-01-09T16:07:13.586Z,4.35
2023-01-09T16:10:34.644Z,3.92
2023-01-09T16:13:43.400Z,7.00
2023-01-09T16:16:45.075Z,4.07
2023-01-09T16:19:50.363Z,2.38
2023-01-09T16:22:53.845Z,5.35
2023-01-09T16:29:26.817Z,5.28
2023-01-09T16:32:33.348Z,5.82
2023-01-09T16:35:35.079Z,8.60
2023-01-09T16:38:36.720Z,5.80
2023-01-09T16:41:57.131Z,7.78
2023-01-09T16:44:58.813Z,7.28
2023-01-09T16:48:10.050Z,7.25
2023-01-09T16:51:22.084Z,7.53
2023-01-09T16:54:23.946Z,3.83
2023-01-09T16:57:25.600Z,6.57
2023-01-09T17:00:27.485Z,6.15
2023-01-09T17:03:29.477Z,3.83
2023-01-09T17:06:31.993Z,3.40
2023-01-09T17:09:33.773Z,5.15
2023-01-09T17:12:35.937Z,4.50
2023-01-09T17:15:40.310Z,7.40
2023-01-09T17:18:42.212Z,5.85
2023-01-09T17:21:46.968Z,6.00
2023-01-09T17:25:08.944Z,7.28
2023-01-09T17:28:29.875Z,4.35
2023-01-09T17:31:31.664Z,7.82
2023-01-09T17:34:34.288Z,2.90
2023-01-09T17:37:35.990Z,9.32
2023-01-09T17:40:37.674Z,7.85
2023-01-09T17:43:43.693Z,4.85
2023-01-09T17:46:48.273Z,4.00
2023-01-09T17:49:50.036Z,7.00
2023-01-09T17:52:54.463Z,5.32
2023-01-09T17:55:56.092Z,9.43
2023-01-09T17:59:00.519Z,5.00
2023-01-09T18:02:02.347Z,5.00
2023-01-09T18:05:04.637Z,5.53
2023-01-09T18:08:09.248Z,6.07
2023-01-09T18:11:17.564Z,5.10
2023-01-09T18:14:19.533Z,8.15
2023-01-09T18:17:21.249Z,3.60
2023-01-09T18:20:22.973Z,5.20
2023-01-09T18:23:24.904Z,7.85
2023-01-09T18:26:26.552Z,4.30
2023-01-09T18:29:28.185Z,6.50
2023-01-09T18:32:29.827Z,5.20
2023-01-09T18:35:33.644Z,5.40
2023-01-09T18:38:35.513Z,5.05
2023-01-09T18:41:37.138Z,4.20
2023-01-09T18:44:39.084Z,5.95
2023-01-09T18:47:40.751Z,7.00
2023-01-09T18:50:42.423Z,4.03
2023-01-09T18:53:44.361Z,4.22
2023-01-09T18:56:45.991Z,3.63
2023-01-09T18:59:47.624Z,3.58
2023-01-09T19:02:52.130Z,4.53
2023-01-09T19:05:56.238Z,6.97
2023-01-09T19:09:01.514Z,4.45
2023-01-09T19:12:03.327Z,7.82
2023-01-09T19:15:10.902Z,6.25
2023-01-09T19:18:14.440Z,4.07
2023-01-09T19:24:20.978Z,4.22
2023-01-09T19:27:22.793Z,6.15
2023-01-09T19:30:24.489Z,4.68
2023-01-09T19:33:27.396Z,4.10
2023-01-09T19:36:29.090Z,5.13
2023-01-09T19:39:32.202Z,6.45
2023-01-09T19:42:33.959Z,7.78
2023-01-09T19:45:38.985Z,5.55
2023-01-09T19:48:42.541Z,9.07
2023-01-09T19:54:47.708Z,7.43
2023-01-09T19:57:52.432Z,10.23
2023-01-09T20:00:54.105Z,8.73
2023-01-09T20:04:02.680Z,5.70
2023-01-09T20:07:05.156Z,9.95
2023-01-09T20:10:07.292Z,5.97
2023-01-09T20:13:10.211Z,4.13
2023-01-09T20:16:15.461Z,10.75
2023-01-09T20:19:17.189Z,6.25
2023-01-09T20:22:18.999Z,13.38
2023-01-09T20:25:20.640Z,14.18
2023-01-09T20:28:22.604Z,5.82
2023-01-09T20:31:31.361Z,7.55
2023-01-09T20:34:33.095Z,9.23
2023-01-09T20:37:34.762Z,9.02
2023-01-09T20:40:36.613Z,5.90
2023-01-09T20:43:42.411Z,7.57
2023-01-09T20:46:47.803Z,4.50
2023-01-09T20:49:49.493Z,7.30
2023-01-09T20:52:54.003Z,8.63
2023-01-09T20:56:06.129Z,8.40
2023-01-09T20:59:11.536Z,10.38
2023-01-09T21:02:14.332Z,6.93
2023-01-09T21:05:18.881Z,9.32
2023-01-09T21:08:20.520Z,13.95
2023-01-09T21:11:24.425Z,8.32
2023-01-09T21:14:26.466Z,6.38
2023-01-09T21:17:29.041Z,10.98
2023-01-09T21:20:30.712Z,10.75
2023-01-09T21:23:32.841Z,17.83
2023-01-09T21:26:34.597Z,14.88
2023-01-09T21:29:36.709Z,9.70
2023-01-09T21:32:44.382Z,11.38
2023-01-09T21:36:00.162Z,10.05
2023-01-09T21:42:24.577Z,8.95
2023-01-09T21:45:45.040Z,14.50
2023-01-09T21:48:46.719Z,12.15
2023-01-09T21:51:48.405Z,11.90
2023-01-09T21:54:51.517Z,13.57
2023-01-09T21:57:58.580Z,10.55
2023-01-09T22:01:08.459Z,12.30
2023-01-09T22:04:13.512Z,7.70
2023-01-09T22:07:18.214Z,9.10
2023-01-09T22:10:19.904Z,4.60
2023-01-09T22:13:24.986Z,9.25
2023-01-09T22:16:30.408Z,10.05
2023-01-09T22:19:32.180Z,9.65
2023-01-09T22:22:33.818Z,11.75
2023-01-09T22:25:38.579Z,17.42
2023-01-09T22:28:40.563Z,8.30
2023-01-09T22:31:43.033Z,9.57
2023-01-09T22:34:44.945Z,11.40
2023-01-09T22:37:46.661Z,12.40
2023-01-09T22:40:48.311Z,12.52
2023-01-09T22:43:50.074Z,6.13
2023-01-09T22:46:51.824Z,14.45
2023-01-09T22:49:54.000Z,10.38
2023-01-09T22:52:55.781Z,8.57
2023-01-09T22:56:02.300Z,9.13
2023-01-09T22:59:03.963Z,10.10
2023-01-09T23:02:05.743Z,7.32
2023-01-09T23:05:08.002Z,11.15
2023-01-09T23:08:09.674Z,9.95
2023-01-09T23:11:13.907Z,12.45
2023-01-09T23:14:15.907Z,18.02
2023-01-09T23:17:17.687Z,14.98
2023-01-09T23:20:19.373Z,11.45
2023-01-09T23:23:21.508Z,7.85
2023-01-09T23:26:23.179Z,9.82
2023-01-09T23:29:24.937Z,15.32
